sensor_id;sensor_type;location;lat;lon;timestamp;P1;durP1;ratioP1;P2;durP2;ratioP2
24743;SDS011;12844;52.110;5.548;2022-07-21T00:02:06;12.90;;;11.65;;
24743;SDS011;12844;52.110;5.548;2022-07-21T00:04:32;12.25;;;11.23;;
24743;SDS011;12844;52.110;5.548;2022-07-21T00:06:58;12.23;;;11.13;;
24743;SDS011;12844;52.110;5.548;2022-07-21T00:09:23;12.43;;;11.23;;
24743;SDS011;12844;52.110;5.548;2022-07-21T00:11:49;11.90;;;10.80;;
24743;SDS011;12844;52.110;5.548;2022-07-21T00:14:15;12.05;;;10.80;;
24743;SDS011;12844;52.110;5.548;2022-07-21T00:16:41;12.77;;;10.93;;
24743;SDS011;12844;52.110;5.548;2022-07-21T00:19:07;11.57;;;10.57;;
24743;SDS011;12844;52.110;5.548;2022-07-21T00:21:33;12.50;;;10.95;;
24743;SDS011;12844;52.110;5.548;2022-07-21T00:23:59;12.52;;;11.32;;
24743;SDS011;12844;52.110;5.548;2022-07-21T00:26:25;12.40;;;10.50;;
24743;SDS011;12844;52.110;5.548;2022-07-21T00:28:51;11.27;;;10.30;;
24743;SDS011;12844;52.110;5.548;2022-07-21T00:31:17;13.20;;;10.77;;
24743;SDS011;12844;52.110;5.548;2022-07-21T00:33:43;11.50;;;10.50;;
24743;SDS011;12844;52.110;5.548;2022-07-21T00:36:08;12.18;;;11.07;;
24743;SDS011;12844;52.110;5.548;2022-07-21T00:38:34;11.18;;;10.27;;
24743;SDS011;12844;52.110;5.548;2022-07-21T00:41:00;11.40;;;10.40;;
24743;SDS011;12844;52.110;5.548;2022-07-21T00:43:26;11.38;;;10.32;;
24743;SDS011;12844;52.110;5.548;2022-07-21T00:45:52;10.90;;;9.90;;
24743;SDS011;12844;52.110;5.548;2022-07-21T00:48:19;11.20;;;10.20;;
24743;SDS011;12844;52.110;5.548;2022-07-21T00:50:44;10.98;;;10.00;;
24743;SDS011;12844;52.110;5.548;2022-07-21T00:53:10;10.88;;;9.88;;
24743;SDS011;12844;52.110;5.548;2022-07-21T00:55:36;10.85;;;9.85;;
24743;SDS011;12844;52.110;5.548;2022-07-21T00:58:02;10.90;;;9.90;;
24743;SDS011;12844;52.110;5.548;2022-07-21T01:00:29;11.60;;;10.43;;
24743;SDS011;12844;52.110;5.548;2022-07-21T01:02:56;10.98;;;10.07;;
24743;SDS011;12844;52.110;5.548;2022-07-21T01:05:22;10.50;;;9.55;;
24743;SDS011;12844;52.110;5.548;2022-07-21T01:07:49;10.63;;;9.73;;
24743;SDS011;12844;52.110;5.548;2022-07-21T01:10:17;11.20;;;10.20;;
24743;SDS011;12844;52.110;5.548;2022-07-21T01:12:44;10.52;;;9.52;;
24743;SDS011;12844;52.110;5.548;2022-07-21T01:15:11;11.05;;;9.95;;
24743;SDS011;12844;52.110;5.548;2022-07-21T01:17:38;10.45;;;9.55;;
24743;SDS011;12844;52.110;5.548;2022-07-21T01:20:06;10.80;;;9.82;;
24743;SDS011;12844;52.110;5.548;2022-07-21T01:22:34;10.18;;;9.27;;
24743;SDS011;12844;52.110;5.548;2022-07-21T01:25:01;11.13;;;10.00;;
24743;SDS011;12844;52.110;5.548;2022-07-21T01:27:28;9.90;;;9.00;;
24743;SDS011;12844;52.110;5.548;2022-07-21T01:29:54;10.02;;;9.23;;
24743;SDS011;12844;52.110;5.548;2022-07-21T01:32:20;10.45;;;9.52;;
24743;SDS011;12844;52.110;5.548;2022-07-21T01:34:46;10.38;;;9.38;;
24743;SDS011;12844;52.110;5.548;2022-07-21T01:37:11;9.60;;;8.80;;
24743;SDS011;12844;52.110;5.548;2022-07-21T01:39:38;9.70;;;8.90;;
24743;SDS011;12844;52.110;5.548;2022-07-21T01:42:36;10.35;;;9.45;;
24743;SDS011;12844;52.110;5.548;2022-07-21T01:45:03;9.88;;;8.98;;
24743;SDS011;12844;52.110;5.548;2022-07-21T01:47:30;9.90;;;9.00;;
24743;SDS011;12844;52.110;5.548;2022-07-21T01:49:56;9.50;;;8.63;;
24743;SDS011;12844;52.110;5.548;2022-07-21T01:52:22;9.50;;;8.70;;
24743;SDS011;12844;52.110;5.548;2022-07-21T01:54:48;9.90;;;9.00;;
24743;SDS011;12844;52.110;5.548;2022-07-21T01:57:13;9.50;;;8.70;;
24743;SDS011;12844;52.110;5.548;2022-07-21T01:59:40;9.30;;;8.50;;
24743;SDS011;12844;52.110;5.548;2022-07-21T02:02:05;9.20;;;8.40;;
24743;SDS011;12844;52.110;5.548;2022-07-21T02:04:31;9.15;;;8.35;;
24743;SDS011;12844;52.110;5.548;2022-07-21T02:06:59;9.40;;;8.60;;
24743;SDS011;12844;52.110;5.548;2022-07-21T02:09:25;9.18;;;8.30;;
24743;SDS011;12844;52.110;5.548;2022-07-21T02:11:51;9.40;;;8.52;;
24743;SDS011;12844;52.110;5.548;2022-07-21T02:14:17;10.00;;;9.13;;
24743;SDS011;12844;52.110;5.548;2022-07-21T02:16:42;9.25;;;8.45;;
24743;SDS011;12844;52.110;5.548;2022-07-21T02:19:08;8.77;;;8.05;;
24743;SDS011;12844;52.110;5.548;2022-07-21T02:21:34;8.45;;;7.72;;
24743;SDS011;12844;52.110;5.548;2022-07-21T02:24:00;9.13;;;8.32;;
24743;SDS011;12844;52.110;5.548;2022-07-21T02:26:25;9.45;;;8.60;;
24743;SDS011;12844;52.110;5.548;2022-07-21T02:28:51;8.63;;;7.82;;
24743;SDS011;12844;52.110;5.548;2022-07-21T02:31:17;9.68;;;8.77;;
24743;SDS011;12844;52.110;5.548;2022-07-21T02:33:42;9.10;;;8.27;;
24743;SDS011;12844;52.110;5.548;2022-07-21T02:36:09;8.73;;;8.02;;
24743;SDS011;12844;52.110;5.548;2022-07-21T02:38:34;9.10;;;8.23;;
24743;SDS011;12844;52.110;5.548;2022-07-21T02:41:00;8.60;;;7.90;;
24743;SDS011;12844;52.110;5.548;2022-07-21T02:53:47;8.45;;;7.55;;
24743;SDS011;12844;52.110;5.548;2022-07-21T02:56:12;8.40;;;7.70;;
24743;SDS011;12844;52.110;5.548;2022-07-21T02:58:38;7.93;;;7.22;;
24743;SDS011;12844;52.110;5.548;2022-07-21T03:01:04;8.10;;;7.40;;
24743;SDS011;12844;52.110;5.548;2022-07-21T03:03:32;8.30;;;7.60;;
24743;SDS011;12844;52.110;5.548;2022-07-21T03:05:59;8.18;;;7.50;;
24743;SDS011;12844;52.110;5.548;2022-07-21T03:08:26;8.15;;;7.50;;
24743;SDS011;12844;52.110;5.548;2022-07-21T03:10:52;8.23;;;7.55;;
24743;SDS011;12844;52.110;5.548;2022-07-21T03:13:18;8.02;;;7.32;;
24743;SDS011;12844;52.110;5.548;2022-07-21T03:15:43;8.07;;;7.38;;
24743;SDS011;12844;52.110;5.548;2022-07-21T03:18:09;8.23;;;7.53;;
24743;SDS011;12844;52.110;5.548;2022-07-21T03:20:36;8.20;;;7.53;;
24743;SDS011;12844;52.110;5.548;2022-07-21T03:23:03;7.68;;;7.07;;
24743;SDS011;12844;52.110;5.548;2022-07-21T03:25:29;8.30;;;7.60;;
24743;SDS011;12844;52.110;5.548;2022-07-21T03:27:55;8.38;;;7.68;;
24743;SDS011;12844;52.110;5.548;2022-07-21T03:30:21;8.25;;;7.57;;
24743;SDS011;12844;52.110;5.548;2022-07-21T03:32:47;7.95;;;7.35;;
24743;SDS011;12844;52.110;5.548;2022-07-21T03:35:13;7.68;;;7.03;;
24743;SDS011;12844;52.110;5.548;2022-07-21T03:37:52;8.13;;;7.43;;
24743;SDS011;12844;52.110;5.548;2022-07-21T03:40:21;7.82;;;7.13;;
24743;SDS011;12844;52.110;5.548;2022-07-21T03:42:49;8.43;;;7.72;;
24743;SDS011;12844;52.110;5.548;2022-07-21T03:45:16;8.35;;;7.65;;
24743;SDS011;12844;52.110;5.548;2022-07-21T03:47:41;8.13;;;7.43;;
24743;SDS011;12844;52.110;5.548;2022-07-21T03:50:07;8.10;;;7.40;;
24743;SDS011;12844;52.110;5.548;2022-07-21T03:52:33;8.43;;;7.72;;
24743;SDS011;12844;52.110;5.548;2022-07-21T03:54:58;7.82;;;7.13;;
24743;SDS011;12844;52.110;5.548;2022-07-21T04:00:07;7.93;;;7.22;;
24743;SDS011;12844;52.110;5.548;2022-07-21T04:02:53;8.50;;;7.80;;
24743;SDS011;12844;52.110;5.548;2022-07-21T04:05:19;8.18;;;7.40;;
24743;SDS011;12844;52.110;5.548;2022-07-21T04:07:46;8.52;;;7.72;;
24743;SDS011;12844;52.110;5.548;2022-07-21T04:10:14;7.90;;;7.30;;
24743;SDS011;12844;52.110;5.548;2022-07-21T04:12:41;8.52;;;7.80;;
24743;SDS011;12844;52.110;5.548;2022-07-21T04:15:08;7.97;;;7.28;;
24743;SDS011;12844;52.110;5.548;2022-07-21T04:17:36;7.93;;;7.30;;
24743;SDS011;12844;52.110;5.548;2022-07-21T04:20:02;7.72;;;7.13;;
24743;SDS011;12844;52.110;5.548;2022-07-21T04:22:29;7.97;;;7.28;;
24743;SDS011;12844;52.110;5.548;2022-07-21T04:24:55;7.55;;;6.95;;
24743;SDS011;12844;52.110;5.548;2022-07-21T04:27:20;7.60;;;6.90;;
24743;SDS011;12844;52.110;5.548;2022-07-21T04:29:46;7.93;;;7.22;;
24743;SDS011;12844;52.110;5.548;2022-07-21T04:32:11;8.18;;;7.38;;
24743;SDS011;12844;52.110;5.548;2022-07-21T04:34:37;7.65;;;6.95;;
24743;SDS011;12844;52.110;5.548;2022-07-21T04:37:03;7.82;;;7.13;;
24743;SDS011;12844;52.110;5.548;2022-07-21T04:39:28;7.35;;;6.75;;
24743;SDS011;12844;52.110;5.548;2022-07-21T04:41:54;7.63;;;7.03;;
24743;SDS011;12844;52.110;5.548;2022-07-21T04:44:20;8.38;;;7.57;;
24743;SDS011;12844;52.110;5.548;2022-07-21T04:46:46;7.70;;;7.10;;
24743;SDS011;12844;52.110;5.548;2022-07-21T04:49:11;8.10;;;7.40;;
24743;SDS011;12844;52.110;5.548;2022-07-21T04:51:37;7.47;;;6.88;;
24743;SDS011;12844;52.110;5.548;2022-07-21T04:54:02;8.23;;;7.43;;
24743;SDS011;12844;52.110;5.548;2022-07-21T04:56:28;8.00;;;7.30;;
24743;SDS011;12844;52.110;5.548;2022-07-21T04:58:53;7.90;;;7.20;;
24743;SDS011;12844;52.110;5.548;2022-07-21T05:01:19;7.80;;;7.10;;
24743;SDS011;12844;52.110;5.548;2022-07-21T05:03:45;7.55;;;6.90;;
24743;SDS011;12844;52.110;5.548;2022-07-21T05:06:10;7.68;;;7.07;;
24743;SDS011;12844;52.110;5.548;2022-07-21T05:08:36;7.95;;;7.25;;
24743;SDS011;12844;52.110;5.548;2022-07-21T05:11:02;7.63;;;6.93;;
24743;SDS011;12844;52.110;5.548;2022-07-21T05:13:27;7.90;;;7.10;;
24743;SDS011;12844;52.110;5.548;2022-07-21T05:15:53;8.20;;;7.50;;
24743;SDS011;12844;52.110;5.548;2022-07-21T05:18:18;7.95;;;7.35;;
24743;SDS011;12844;52.110;5.548;2022-07-21T05:20:44;8.10;;;7.40;;
24743;SDS011;12844;52.110;5.548;2022-07-21T05:23:09;8.02;;;7.32;;
24743;SDS011;12844;52.110;5.548;2022-07-21T05:25:35;8.15;;;7.50;;
24743;SDS011;12844;52.110;5.548;2022-07-21T05:28:02;8.23;;;7.53;;
24743;SDS011;12844;52.110;5.548;2022-07-21T05:30:28;8.40;;;7.70;;
24743;SDS011;12844;52.110;5.548;2022-07-21T05:32:53;7.93;;;7.13;;
24743;SDS011;12844;52.110;5.548;2022-07-21T05:35:19;8.02;;;7.32;;
24743;SDS011;12844;52.110;5.548;2022-07-21T05:37:45;8.35;;;7.65;;
24743;SDS011;12844;52.110;5.548;2022-07-21T05:40:11;8.45;;;7.65;;
24743;SDS011;12844;52.110;5.548;2022-07-21T05:42:37;8.68;;;7.88;;
24743;SDS011;12844;52.110;5.548;2022-07-21T05:45:04;7.93;;;7.20;;
24743;SDS011;12844;52.110;5.548;2022-07-21T05:47:31;8.48;;;7.78;;
24743;SDS011;12844;52.110;5.548;2022-07-21T05:49:56;8.30;;;7.60;;
24743;SDS011;12844;52.110;5.548;2022-07-21T05:52:22;8.20;;;7.50;;
24743;SDS011;12844;52.110;5.548;2022-07-21T05:54:48;9.10;;;8.30;;
24743;SDS011;12844;52.110;5.548;2022-07-21T05:57:14;8.95;;;8.15;;
24743;SDS011;12844;52.110;5.548;2022-07-21T05:59:39;9.05;;;8.25;;
24743;SDS011;12844;52.110;5.548;2022-07-21T06:02:05;9.68;;;8.80;;
24743;SDS011;12844;52.110;5.548;2022-07-21T06:04:31;9.32;;;8.52;;
24743;SDS011;12844;52.110;5.548;2022-07-21T06:06:56;10.00;;;9.10;;
24743;SDS011;12844;52.110;5.548;2022-07-21T06:09:22;10.38;;;9.43;;
24743;SDS011;12844;52.110;5.548;2022-07-21T06:11:47;9.60;;;8.77;;
24743;SDS011;12844;52.110;5.548;2022-07-21T06:14:13;10.05;;;9.23;;
24743;SDS011;12844;52.110;5.548;2022-07-21T06:16:38;10.45;;;9.45;;
24743;SDS011;12844;52.110;5.548;2022-07-21T06:19:05;10.32;;;9.43;;
24743;SDS011;12844;52.110;5.548;2022-07-21T06:21:31;10.38;;;9.48;;
24743;SDS011;12844;52.110;5.548;2022-07-21T06:23:57;10.48;;;9.38;;
24743;SDS011;12844;52.110;5.548;2022-07-21T06:26:23;16.45;;;14.85;;
24743;SDS011;12844;52.110;5.548;2022-07-21T06:28:49;19.90;;;17.85;;
24743;SDS011;12844;52.110;5.548;2022-07-21T06:31:14;19.35;;;17.45;;
24743;SDS011;12844;52.110;5.548;2022-07-21T06:33:40;21.35;;;19.15;;
24743;SDS011;12844;52.110;5.548;2022-07-21T06:36:06;21.48;;;19.17;;
24743;SDS011;12844;52.110;5.548;2022-07-21T06:38:33;22.33;;;20.02;;
24743;SDS011;12844;52.110;5.548;2022-07-21T06:40:58;22.00;;;19.80;;
24743;SDS011;12844;52.110;5.548;2022-07-21T06:43:24;20.77;;;18.58;;
24743;SDS011;12844;52.110;5.548;2022-07-21T06:45:49;23.05;;;20.45;;
24743;SDS011;12844;52.110;5.548;2022-07-21T06:48:16;24.60;;;21.00;;
24743;SDS011;12844;52.110;5.548;2022-07-21T06:50:42;22.50;;;20.20;;
24743;SDS011;12844;52.110;5.548;2022-07-21T06:53:08;22.88;;;20.58;;
24743;SDS011;12844;52.110;5.548;2022-07-21T06:55:34;23.23;;;20.27;;
24743;SDS011;12844;52.110;5.548;2022-07-21T06:58:16;21.88;;;19.45;;
24743;SDS011;12844;52.110;5.548;2022-07-21T07:00:43;22.35;;;20.02;;
24743;SDS011;12844;52.110;5.548;2022-07-21T07:03:10;21.90;;;19.48;;
24743;SDS011;12844;52.110;5.548;2022-07-21T07:05:36;27.17;;;20.42;;
24743;SDS011;12844;52.110;5.548;2022-07-21T07:08:03;23.55;;;20.50;;
24743;SDS011;12844;52.110;5.548;2022-07-21T07:10:28;26.83;;;20.17;;
24743;SDS011;12844;52.110;5.548;2022-07-21T07:12:54;23.77;;;20.48;;
24743;SDS011;12844;52.110;5.548;2022-07-21T07:15:21;25.48;;;18.17;;
24743;SDS011;12844;52.110;5.548;2022-07-21T07:17:47;26.25;;;18.92;;
24743;SDS011;12844;52.110;5.548;2022-07-21T07:20:13;21.48;;;19.15;;
24743;SDS011;12844;52.110;5.548;2022-07-21T07:22:38;22.25;;;18.55;;
24743;SDS011;12844;52.110;5.548;2022-07-21T07:25:04;21.75;;;18.65;;
24743;SDS011;12844;52.110;5.548;2022-07-21T07:27:30;19.73;;;17.63;;
24743;SDS011;12844;52.110;5.548;2022-07-21T07:29:56;22.20;;;17.77;;
24743;SDS011;12844;52.110;5.548;2022-07-21T07:32:22;19.48;;;17.17;;
24743;SDS011;12844;52.110;5.548;2022-07-21T07:34:47;23.33;;;17.77;;
24743;SDS011;12844;52.110;5.548;2022-07-21T07:37:13;22.20;;;19.13;;
24743;SDS011;12844;52.110;5.548;2022-07-21T07:39:39;21.25;;;18.48;;
24743;SDS011;12844;52.110;5.548;2022-07-21T07:42:05;18.13;;;16.17;;
24743;SDS011;12844;52.110;5.548;2022-07-21T07:44:31;18.98;;;16.90;;
24743;SDS011;12844;52.110;5.548;2022-07-21T07:46:57;18.20;;;16.20;;
24743;SDS011;12844;52.110;5.548;2022-07-21T07:49:23;16.90;;;15.27;;
24743;SDS011;12844;52.110;5.548;2022-07-21T07:51:49;19.40;;;14.98;;
24743;SDS011;12844;52.110;5.548;2022-07-21T07:54:15;19.55;;;14.55;;
24743;SDS011;12844;52.110;5.548;2022-07-21T07:56:41;18.92;;;15.55;;
24743;SDS011;12844;52.110;5.548;2022-07-21T07:59:07;20.00;;;15.27;;
24743;SDS011;12844;52.110;5.548;2022-07-21T08:01:32;16.92;;;15.10;;
24743;SDS011;12844;52.110;5.548;2022-07-21T08:03:58;20.88;;;15.13;;
24743;SDS011;12844;52.110;5.548;2022-07-21T08:06:23;17.58;;;14.90;;
24743;SDS011;12844;52.110;5.548;2022-07-21T08:08:49;17.30;;;13.95;;
24743;SDS011;12844;52.110;5.548;2022-07-21T08:11:15;16.85;;;13.88;;
24743;SDS011;12844;52.110;5.548;2022-07-21T08:13:41;17.05;;;13.75;;
24743;SDS011;12844;52.110;5.548;2022-07-21T08:16:07;17.42;;;14.32;;
24743;SDS011;12844;52.110;5.548;2022-07-21T08:18:33;17.27;;;14.32;;
24743;SDS011;12844;52.110;5.548;2022-07-21T08:20:59;16.08;;;14.00;;
24743;SDS011;12844;52.110;5.548;2022-07-21T08:23:24;19.73;;;14.85;;
24743;SDS011;12844;52.110;5.548;2022-07-21T08:25:50;17.98;;;13.88;;
24743;SDS011;12844;52.110;5.548;2022-07-21T08:28:15;15.93;;;14.23;;
24743;SDS011;12844;52.110;5.548;2022-07-21T08:30:41;17.92;;;13.35;;
24743;SDS011;12844;52.110;5.548;2022-07-21T08:33:07;18.65;;;13.88;;
24743;SDS011;12844;52.110;5.548;2022-07-21T08:35:32;19.48;;;14.02;;
24743;SDS011;12844;52.110;5.548;2022-07-21T08:38:03;18.90;;;13.68;;
24743;SDS011;12844;52.110;5.548;2022-07-21T08:40:32;17.90;;;14.00;;
24743;SDS011;12844;52.110;5.548;2022-07-21T08:43:02;15.88;;;14.18;;
24743;SDS011;12844;52.110;5.548;2022-07-21T08:45:29;15.48;;;13.77;;
24743;SDS011;12844;52.110;5.548;2022-07-21T08:47:55;16.95;;;13.35;;
24743;SDS011;12844;52.110;5.548;2022-07-21T08:50:22;18.13;;;13.90;;
24743;SDS011;12844;52.110;5.548;2022-07-21T08:52:50;15.52;;;12.90;;
24743;SDS011;12844;52.110;5.548;2022-07-21T08:55:15;15.25;;;13.40;;
24743;SDS011;12844;52.110;5.548;2022-07-21T08:57:41;16.23;;;12.98;;
24743;SDS011;12844;52.110;5.548;2022-07-21T09:00:07;19.30;;;13.55;;
24743;SDS011;12844;52.110;5.548;2022-07-21T09:02:35;17.90;;;13.90;;
24743;SDS011;12844;52.110;5.548;2022-07-21T09:05:02;15.45;;;12.65;;
24743;SDS011;12844;52.110;5.548;2022-07-21T09:07:46;18.83;;;13.98;;
24743;SDS011;12844;52.110;5.548;2022-07-21T09:10:16;14.00;;;12.60;;
24743;SDS011;12844;52.110;5.548;2022-07-21T09:12:48;14.43;;;12.60;;
24743;SDS011;12844;52.110;5.548;2022-07-21T09:28:12;14.38;;;12.15;;
24743;SDS011;12844;52.110;5.548;2022-07-21T09:35:51;13.25;;;11.48;;
24743;SDS011;12844;52.110;5.548;2022-07-21T09:38:22;12.48;;;11.18;;
24743;SDS011;12844;52.110;5.548;2022-07-21T09:40:48;12.55;;;11.25;;
24743;SDS011;12844;52.110;5.548;2022-07-21T09:43:30;13.48;;;12.18;;
24743;SDS011;12844;52.110;5.548;2022-07-21T09:46:02;12.77;;;11.43;;
24743;SDS011;12844;52.110;5.548;2022-07-21T09:48:30;14.32;;;11.60;;
24743;SDS011;12844;52.110;5.548;2022-07-21T09:51:18;13.50;;;11.07;;
24743;SDS011;12844;52.110;5.548;2022-07-21T09:53:48;13.13;;;11.30;;
24743;SDS011;12844;52.110;5.548;2022-07-21T09:56:16;12.60;;;11.20;;
24743;SDS011;12844;52.110;5.548;2022-07-21T09:58:43;13.02;;;11.48;;
24743;SDS011;12844;52.110;5.548;2022-07-21T10:01:13;15.65;;;11.30;;
24743;SDS011;12844;52.110;5.548;2022-07-21T10:03:39;12.80;;;10.48;;
24743;SDS011;12844;52.110;5.548;2022-07-21T10:06:09;12.98;;;11.57;;
24743;SDS011;12844;52.110;5.548;2022-07-21T10:08:35;15.35;;;11.23;;
24743;SDS011;12844;52.110;5.548;2022-07-21T10:11:02;14.25;;;10.77;;
24743;SDS011;12844;52.110;5.548;2022-07-21T10:13:28;14.48;;;10.90;;
24743;SDS011;12844;52.110;5.548;2022-07-21T10:15:54;15.00;;;10.30;;
24743;SDS011;12844;52.110;5.548;2022-07-21T10:18:34;12.35;;;10.27;;
24743;SDS011;12844;52.110;5.548;2022-07-21T10:21:08;13.57;;;10.52;;
24743;SDS011;12844;52.110;5.548;2022-07-21T10:23:59;12.80;;;10.77;;
24743;SDS011;12844;52.110;5.548;2022-07-21T10:26:24;11.13;;;9.98;;
24743;SDS011;12844;52.110;5.548;2022-07-21T10:28:50;11.35;;;10.25;;
24743;SDS011;12844;52.110;5.548;2022-07-21T10:31:22;11.85;;;10.00;;
24743;SDS011;12844;52.110;5.548;2022-07-21T10:33:51;11.80;;;9.38;;
24743;SDS011;12844;52.110;5.548;2022-07-21T10:41:41;12.20;;;9.18;;
24743;SDS011;12844;52.110;5.548;2022-07-21T10:47:26;10.40;;;9.35;;
24743;SDS011;12844;52.110;5.548;2022-07-21T10:49:46;16.00;;;9.30;;
24743;SDS011;12844;52.110;5.548;2022-07-21T10:57:45;16.90;;;9.07;;
24743;SDS011;12844;52.110;5.548;2022-07-21T11:00:16;10.73;;;9.23;;
24743;SDS011;12844;52.110;5.548;2022-07-21T11:03:03;10.45;;;9.10;;
24743;SDS011;12844;52.110;5.548;2022-07-21T11:05:38;9.32;;;8.00;;
24743;SDS011;12844;52.110;5.548;2022-07-21T11:08:49;11.50;;;8.27;;
24743;SDS011;12844;52.110;5.548;2022-07-21T11:11:23;13.23;;;8.43;;
24743;SDS011;12844;52.110;5.548;2022-07-21T11:13:56;16.40;;;8.07;;
24743;SDS011;12844;52.110;5.548;2022-07-21T11:22:04;13.82;;;8.23;;
24743;SDS011;12844;52.110;5.548;2022-07-21T11:24:30;10.68;;;8.32;;
24743;SDS011;12844;52.110;5.548;2022-07-21T11:27:01;9.82;;;7.97;;
24743;SDS011;12844;52.110;5.548;2022-07-21T11:29:27;12.93;;;7.82;;
24743;SDS011;12844;52.110;5.548;2022-07-21T11:31:54;9.50;;;7.68;;
24743;SDS011;12844;52.110;5.548;2022-07-21T11:34:20;8.80;;;7.90;;
24743;SDS011;12844;52.110;5.548;2022-07-21T11:36:46;9.27;;;8.27;;
24743;SDS011;12844;52.110;5.548;2022-07-21T11:39:12;9.05;;;7.70;;
24743;SDS011;12844;52.110;5.548;2022-07-21T11:41:41;10.07;;;7.57;;
24743;SDS011;12844;52.110;5.548;2022-07-21T11:44:10;8.35;;;7.40;;
24743;SDS011;12844;52.110;5.548;2022-07-21T11:49:13;9.93;;;7.70;;
24743;SDS011;12844;52.110;5.548;2022-07-21T11:51:45;7.32;;;6.60;;
24743;SDS011;12844;52.110;5.548;2022-07-21T11:54:22;10.75;;;7.18;;
24743;SDS011;12844;52.110;5.548;2022-07-21T11:56:50;9.05;;;7.30;;
24743;SDS011;12844;52.110;5.548;2022-07-21T11:59:17;7.45;;;6.75;;
24743;SDS011;12844;52.110;5.548;2022-07-21T12:01:50;7.97;;;6.53;;
24743;SDS011;12844;52.110;5.548;2022-07-21T12:04:32;9.48;;;7.05;;
24743;SDS011;12844;52.110;5.548;2022-07-21T12:07:20;7.85;;;6.45;;
24743;SDS011;12844;52.110;5.548;2022-07-21T12:09:50;7.95;;;6.63;;
24743;SDS011;12844;52.110;5.548;2022-07-21T12:12:35;9.13;;;6.97;;
24743;SDS011;12844;52.110;5.548;2022-07-21T12:15:10;9.00;;;6.50;;
24743;SDS011;12844;52.110;5.548;2022-07-21T12:17:40;10.60;;;6.13;;
24743;SDS011;12844;52.110;5.548;2022-07-21T12:20:14;11.15;;;5.97;;
24743;SDS011;12844;52.110;5.548;2022-07-21T12:22:48;7.18;;;5.93;;
24743;SDS011;12844;52.110;5.548;2022-07-21T12:25:15;7.85;;;5.88;;
24743;SDS011;12844;52.110;5.548;2022-07-21T12:27:44;10.75;;;6.45;;
24743;SDS011;12844;52.110;5.548;2022-07-21T12:33:09;8.98;;;6.07;;
24743;SDS011;12844;52.110;5.548;2022-07-21T12:35:36;10.30;;;6.03;;
24743;SDS011;12844;52.110;5.548;2022-07-21T12:38:04;9.57;;;5.65;;
24743;SDS011;12844;52.110;5.548;2022-07-21T12:40:31;11.20;;;6.00;;
24743;SDS011;12844;52.110;5.548;2022-07-21T12:43:05;8.40;;;5.95;;
24743;SDS011;12844;52.110;5.548;2022-07-21T12:45:43;7.75;;;5.78;;
24743;SDS011;12844;52.110;5.548;2022-07-21T12:48:11;8.35;;;6.10;;
24743;SDS011;12844;52.110;5.548;2022-07-21T12:50:37;7.32;;;6.20;;
24743;SDS011;12844;52.110;5.548;2022-07-21T12:53:10;9.18;;;5.78;;
24743;SDS011;12844;52.110;5.548;2022-07-21T12:55:37;6.75;;;5.55;;
24743;SDS011;12844;52.110;5.548;2022-07-21T12:58:03;7.55;;;5.57;;
24743;SDS011;12844;52.110;5.548;2022-07-21T13:00:29;9.40;;;5.75;;
24743;SDS011;12844;52.110;5.548;2022-07-21T13:02:56;8.52;;;5.55;;
24743;SDS011;12844;52.110;5.548;2022-07-21T13:05:23;8.18;;;5.43;;
24743;SDS011;12844;52.110;5.548;2022-07-21T13:07:49;7.88;;;5.28;;
24743;SDS011;12844;52.110;5.548;2022-07-21T13:10:15;8.57;;;5.82;;
24743;SDS011;12844;52.110;5.548;2022-07-21T13:12:42;6.28;;;5.40;;
24743;SDS011;12844;52.110;5.548;2022-07-21T13:15:08;8.13;;;5.20;;
24743;SDS011;12844;52.110;5.548;2022-07-21T13:17:34;7.45;;;5.25;;
24743;SDS011;12844;52.110;5.548;2022-07-21T13:20:00;8.05;;;5.80;;
24743;SDS011;12844;52.110;5.548;2022-07-21T13:22:25;5.90;;;5.30;;
24743;SDS011;12844;52.110;5.548;2022-07-21T13:24:53;8.40;;;5.22;;
24743;SDS011;12844;52.110;5.548;2022-07-21T13:27:18;7.40;;;5.35;;
24743;SDS011;12844;52.110;5.548;2022-07-21T13:29:44;8.48;;;5.38;;
24743;SDS011;12844;52.110;5.548;2022-07-21T13:32:09;6.55;;;5.28;;
24743;SDS011;12844;52.110;5.548;2022-07-21T13:34:35;9.35;;;5.40;;
24743;SDS011;12844;52.110;5.548;2022-07-21T13:37:01;7.80;;;5.60;;
24743;SDS011;12844;52.110;5.548;2022-07-21T13:39:26;7.63;;;5.15;;
24743;SDS011;12844;52.110;5.548;2022-07-21T13:41:53;5.60;;;5.00;;
24743;SDS011;12844;52.110;5.548;2022-07-21T13:44:20;6.25;;;4.70;;
24743;SDS011;12844;52.110;5.548;2022-07-21T13:46:45;6.15;;;5.05;;
24743;SDS011;12844;52.110;5.548;2022-07-21T13:49:11;7.63;;;5.35;;
24743;SDS011;12844;52.110;5.548;2022-07-21T13:51:36;5.22;;;4.72;;
24743;SDS011;12844;52.110;5.548;2022-07-21T13:54:02;5.53;;;5.03;;
24743;SDS011;12844;52.110;5.548;2022-07-21T13:56:28;5.60;;;5.10;;
24743;SDS011;12844;52.110;5.548;2022-07-21T13:58:54;5.32;;;4.75;;
24743;SDS011;12844;52.110;5.548;2022-07-21T14:01:19;5.00;;;4.60;;
24743;SDS011;12844;52.110;5.548;2022-07-21T14:03:46;7.30;;;4.80;;
24743;SDS011;12844;52.110;5.548;2022-07-21T14:06:13;5.20;;;4.70;;
24743;SDS011;12844;52.110;5.548;2022-07-21T14:08:39;7.43;;;4.70;;
24743;SDS011;12844;52.110;5.548;2022-07-21T14:11:05;5.13;;;4.53;;
24743;SDS011;12844;52.110;5.548;2022-07-21T14:13:32;6.75;;;4.80;;
24743;SDS011;12844;52.110;5.548;2022-07-21T14:15:58;5.18;;;4.68;;
24743;SDS011;12844;52.110;5.548;2022-07-21T14:18:25;5.57;;;4.72;;
24743;SDS011;12844;52.110;5.548;2022-07-21T14:20:50;5.97;;;4.32;;
24743;SDS011;12844;52.110;5.548;2022-07-21T14:23:20;5.88;;;4.25;;
24743;SDS011;12844;52.110;5.548;2022-07-21T14:25:47;5.63;;;4.68;;
24743;SDS011;12844;52.110;5.548;2022-07-21T14:28:14;6.53;;;5.00;;
24743;SDS011;12844;52.110;5.548;2022-07-21T14:30:39;6.35;;;4.53;;
24743;SDS011;12844;52.110;5.548;2022-07-21T14:33:05;4.82;;;4.35;;
24743;SDS011;12844;52.110;5.548;2022-07-21T14:35:31;6.57;;;4.78;;
24743;SDS011;12844;52.110;5.548;2022-07-21T14:37:56;5.65;;;4.32;;
24743;SDS011;12844;52.110;5.548;2022-07-21T14:40:22;4.65;;;4.18;;
24743;SDS011;12844;52.110;5.548;2022-07-21T14:42:49;4.63;;;4.22;;
24743;SDS011;12844;52.110;5.548;2022-07-21T14:45:16;4.50;;;4.10;;
24743;SDS011;12844;52.110;5.548;2022-07-21T14:47:43;5.05;;;4.55;;
24743;SDS011;12844;52.110;5.548;2022-07-21T14:50:11;4.40;;;3.85;;
24743;SDS011;12844;52.110;5.548;2022-07-21T14:52:37;5.25;;;4.20;;
24743;SDS011;12844;52.110;5.548;2022-07-21T14:55:04;5.10;;;4.22;;
24743;SDS011;12844;52.110;5.548;2022-07-21T14:57:30;4.65;;;4.10;;
24743;SDS011;12844;52.110;5.548;2022-07-21T14:59:55;5.55;;;3.92;;
24743;SDS011;12844;52.110;5.548;2022-07-21T15:02:22;5.55;;;4.40;;
24743;SDS011;12844;52.110;5.548;2022-07-21T15:04:47;4.70;;;4.07;;
24743;SDS011;12844;52.110;5.548;2022-07-21T15:07:13;4.68;;;4.28;;
24743;SDS011;12844;52.110;5.548;2022-07-21T15:09:38;4.30;;;3.90;;
24743;SDS011;12844;52.110;5.548;2022-07-21T15:12:04;4.22;;;3.83;;
24743;SDS011;12844;52.110;5.548;2022-07-21T15:14:30;4.40;;;4.00;;
24743;SDS011;12844;52.110;5.548;2022-07-21T15:16:55;4.20;;;3.80;;
24743;SDS011;12844;52.110;5.548;2022-07-21T15:19:21;4.50;;;4.10;;
24743;SDS011;12844;52.110;5.548;2022-07-21T15:21:47;4.30;;;3.90;;
24743;SDS011;12844;52.110;5.548;2022-07-21T15:24:12;4.53;;;4.13;;
24743;SDS011;12844;52.110;5.548;2022-07-21T15:26:40;4.15;;;3.80;;
24743;SDS011;12844;52.110;5.548;2022-07-21T15:29:05;4.30;;;3.90;;
24743;SDS011;12844;52.110;5.548;2022-07-21T15:31:31;5.03;;;3.50;;
24743;SDS011;12844;52.110;5.548;2022-07-21T15:33:57;5.22;;;4.00;;
24743;SDS011;12844;52.110;5.548;2022-07-21T15:36:23;4.60;;;4.20;;